sensor_id;sensor_type;location;lat;lon;timestamp;P1;durP1;ratioP1;P2;durP2;ratioP2
72517;SDS011;60540;51.178;6.738;2022-10-04T00:01:43;7.63;;;4.30;;
72517;SDS011;60540;51.178;6.738;2022-10-04T00:09:40;8.85;;;4.53;;
72517;SDS011;60540;51.178;6.738;2022-10-04T00:12:15;9.90;;;4.30;;
72517;SDS011;60540;51.178;6.738;2022-10-04T00:14:46;9.23;;;4.78;;
72517;SDS011;60540;51.178;6.738;2022-10-04T00:17:13;9.90;;;4.63;;
72517;SDS011;60540;51.178;6.738;2022-10-04T00:19:47;15.63;;;5.47;;
72517;SDS011;60540;51.178;6.738;2022-10-04T00:22:15;8.80;;;4.35;;
72517;SDS011;60540;51.178;6.738;2022-10-04T00:35:50;8.57;;;4.70;;
72517;SDS011;60540;51.178;6.738;2022-10-04T00:40:35;9.88;;;4.03;;
72517;SDS011;60540;51.178;6.738;2022-10-04T00:43:09;6.72;;;4.20;;
72517;SDS011;60540;51.178;6.738;2022-10-04T00:48:21;11.07;;;5.15;;
72517;SDS011;60540;51.178;6.738;2022-10-04T00:50:57;7.57;;;4.18;;
72517;SDS011;60540;51.178;6.738;2022-10-04T00:53:47;8.85;;;4.13;;
72517;SDS011;60540;51.178;6.738;2022-10-04T00:56:37;8.38;;;4.10;;
72517;SDS011;60540;51.178;6.738;2022-10-04T00:59:37;9.70;;;4.30;;
72517;SDS011;60540;51.178;6.738;2022-10-04T01:07:11;8.07;;;4.43;;
72517;SDS011;60540;51.178;6.738;2022-10-04T01:09:44;11.30;;;4.10;;
72517;SDS011;60540;51.178;6.738;2022-10-04T01:12:15;6.28;;;4.07;;
72517;SDS011;60540;51.178;6.738;2022-10-04T01:17:59;8.43;;;4.38;;
72517;SDS011;60540;51.178;6.738;2022-10-04T01:20:38;9.48;;;4.22;;
72517;SDS011;60540;51.178;6.738;2022-10-04T01:23:06;8.82;;;4.38;;
72517;SDS011;60540;51.178;6.738;2022-10-04T01:25:45;8.75;;;4.63;;
72517;SDS011;60540;51.178;6.738;2022-10-04T01:28:14;7.22;;;4.00;;
72517;SDS011;60540;51.178;6.738;2022-10-04T01:30:40;8.52;;;4.35;;
72517;SDS011;60540;51.178;6.738;2022-10-04T01:33:06;8.45;;;4.25;;
72517;SDS011;60540;51.178;6.738;2022-10-04T01:35:32;8.00;;;4.57;;
72517;SDS011;60540;51.178;6.738;2022-10-04T01:42:57;7.72;;;4.07;;
72517;SDS011;60540;51.178;6.738;2022-10-04T01:45:38;10.07;;;4.50;;
72517;SDS011;60540;51.178;6.738;2022-10-04T01:48:11;7.32;;;4.13;;
72517;SDS011;60540;51.178;6.738;2022-10-04T01:50:45;9.88;;;4.30;;
72517;SDS011;60540;51.178;6.738;2022-10-04T01:53:22;10.85;;;4.40;;
72517;SDS011;60540;51.178;6.738;2022-10-04T01:58:32;8.52;;;3.90;;
72517;SDS011;60540;51.178;6.738;2022-10-04T02:01:05;10.50;;;4.28;;
72517;SDS011;60540;51.178;6.738;2022-10-04T02:03:41;8.95;;;4.35;;
72517;SDS011;60540;51.178;6.738;2022-10-04T02:06:09;8.90;;;4.10;;
72517;SDS011;60540;51.178;6.738;2022-10-04T02:08:37;7.85;;;3.80;;
72517;SDS011;60540;51.178;6.738;2022-10-04T02:11:05;11.05;;;3.97;;
72517;SDS011;60540;51.178;6.738;2022-10-04T02:13:32;10.15;;;4.18;;
72517;SDS011;60540;51.178;6.738;2022-10-04T02:16:00;8.15;;;3.80;;
72517;SDS011;60540;51.178;6.738;2022-10-04T02:20:52;5.65;;;3.63;;
72517;SDS011;60540;51.178;6.738;2022-10-04T02:23:19;9.55;;;4.13;;
72517;SDS011;60540;51.178;6.738;2022-10-04T02:25:45;6.55;;;3.97;;
72517;SDS011;60540;51.178;6.738;2022-10-04T02:28:12;7.63;;;4.10;;
72517;SDS011;60540;51.178;6.738;2022-10-04T02:30:43;7.57;;;4.03;;
72517;SDS011;60540;51.178;6.738;2022-10-04T02:33:32;8.65;;;4.30;;
72517;SDS011;60540;51.178;6.738;2022-10-04T02:35:57;9.02;;;4.13;;
72517;SDS011;60540;51.178;6.738;2022-10-04T02:38:31;7.47;;;3.92;;
72517;SDS011;60540;51.178;6.738;2022-10-04T02:46:12;9.73;;;4.40;;
72517;SDS011;60540;51.178;6.738;2022-10-04T02:53:55;8.38;;;4.10;;
72517;SDS011;60540;51.178;6.738;2022-10-04T02:56:57;7.40;;;3.75;;
72517;SDS011;60540;51.178;6.738;2022-10-04T02:59:23;7.03;;;3.90;;
72517;SDS011;60540;51.178;6.738;2022-10-04T03:01:57;7.82;;;3.95;;
72517;SDS011;60540;51.178;6.738;2022-10-04T03:04:25;9.45;;;3.85;;
72517;SDS011;60540;51.178;6.738;2022-10-04T03:06:51;6.07;;;3.60;;
72517;SDS011;60540;51.178;6.738;2022-10-04T03:09:18;7.95;;;3.90;;
72517;SDS011;60540;51.178;6.738;2022-10-04T03:11:48;8.07;;;3.95;;
72517;SDS011;60540;51.178;6.738;2022-10-04T03:14:21;6.72;;;3.45;;
72517;SDS011;60540;51.178;6.738;2022-10-04T03:16:50;8.27;;;3.55;;
72517;SDS011;60540;51.178;6.738;2022-10-04T03:19:18;9.13;;;4.38;;
72517;SDS011;60540;51.178;6.738;2022-10-04T03:21:46;6.85;;;3.70;;
72517;SDS011;60540;51.178;6.738;2022-10-04T03:24:15;8.80;;;3.60;;
72517;SDS011;60540;51.178;6.738;2022-10-04T03:26:45;6.85;;;3.70;;
72517;SDS011;60540;51.178;6.738;2022-10-04T03:29:13;7.25;;;3.40;;
72517;SDS011;60540;51.178;6.738;2022-10-04T03:31:47;8.10;;;3.28;;
72517;SDS011;60540;51.178;6.738;2022-10-04T03:34:21;5.95;;;3.30;;
72517;SDS011;60540;51.178;6.738;2022-10-04T03:36:50;8.45;;;3.67;;
72517;SDS011;60540;51.178;6.738;2022-10-04T03:39:19;7.22;;;3.15;;
72517;SDS011;60540;51.178;6.738;2022-10-04T03:41:51;6.85;;;3.85;;
72517;SDS011;60540;51.178;6.738;2022-10-04T03:44:17;7.40;;;4.07;;
72517;SDS011;60540;51.178;6.738;2022-10-04T03:46:43;7.63;;;4.35;;
72517;SDS011;60540;51.178;6.738;2022-10-04T03:49:10;8.52;;;4.47;;
72517;SDS011;60540;51.178;6.738;2022-10-04T03:51:37;11.18;;;3.60;;
72517;SDS011;60540;51.178;6.738;2022-10-04T03:54:08;9.43;;;3.90;;
72517;SDS011;60540;51.178;6.738;2022-10-04T03:56:34;7.15;;;4.45;;
72517;SDS011;60540;51.178;6.738;2022-10-04T03:59:04;10.95;;;3.90;;
72517;SDS011;60540;51.178;6.738;2022-10-04T04:01:47;9.00;;;4.18;;
72517;SDS011;60540;51.178;6.738;2022-10-04T04:04:35;7.07;;;3.55;;
72517;SDS011;60540;51.178;6.738;2022-10-04T04:09:42;7.75;;;3.35;;
72517;SDS011;60540;51.178;6.738;2022-10-04T04:12:12;7.13;;;4.05;;
72517;SDS011;60540;51.178;6.738;2022-10-04T04:14:41;6.82;;;4.05;;
72517;SDS011;60540;51.178;6.738;2022-10-04T04:19:55;10.75;;;4.07;;
72517;SDS011;60540;51.178;6.738;2022-10-04T04:22:22;9.90;;;4.88;;
72517;SDS011;60540;51.178;6.738;2022-10-04T04:24:48;7.57;;;3.40;;
72517;SDS011;60540;51.178;6.738;2022-10-04T04:27:15;6.25;;;3.50;;
72517;SDS011;60540;51.178;6.738;2022-10-04T04:29:46;8.98;;;4.03;;
72517;SDS011;60540;51.178;6.738;2022-10-04T04:34:49;8.75;;;3.83;;
72517;SDS011;60540;51.178;6.738;2022-10-04T04:37:21;9.63;;;4.00;;
72517;SDS011;60540;51.178;6.738;2022-10-04T04:39:50;8.25;;;3.95;;
72517;SDS011;60540;51.178;6.738;2022-10-04T04:42:40;6.63;;;3.75;;
72517;SDS011;60540;51.178;6.738;2022-10-04T04:45:05;9.45;;;4.13;;
72517;SDS011;60540;51.178;6.738;2022-10-04T04:47:46;9.00;;;4.50;;
72517;SDS011;60540;51.178;6.738;2022-10-04T04:50:15;7.90;;;4.63;;
72517;SDS011;60540;51.178;6.738;2022-10-04T04:52:44;6.82;;;4.10;;
72517;SDS011;60540;51.178;6.738;2022-10-04T04:55:18;9.48;;;3.90;;
72517;SDS011;60540;51.178;6.738;2022-10-04T04:57:45;8.63;;;4.00;;
72517;SDS011;60540;51.178;6.738;2022-10-04T05:00:22;5.95;;;3.78;;
72517;SDS011;60540;51.178;6.738;2022-10-04T05:02:55;7.38;;;3.85;;
72517;SDS011;60540;51.178;6.738;2022-10-04T05:16:11;8.45;;;3.85;;
72517;SDS011;60540;51.178;6.738;2022-10-04T05:19:01;7.18;;;3.88;;
72517;SDS011;60540;51.178;6.738;2022-10-04T05:21:29;10.00;;;4.18;;
72517;SDS011;60540;51.178;6.738;2022-10-04T05:23:56;10.63;;;4.32;;
72517;SDS011;60540;51.178;6.738;2022-10-04T05:26:25;8.73;;;3.72;;
72517;SDS011;60540;51.178;6.738;2022-10-04T05:28:52;6.95;;;4.15;;
72517;SDS011;60540;51.178;6.738;2022-10-04T05:33:57;6.28;;;3.47;;
72517;SDS011;60540;51.178;6.738;2022-10-04T05:41:38;7.28;;;4.28;;
72517;SDS011;60540;51.178;6.738;2022-10-04T05:44:23;9.63;;;4.20;;
72517;SDS011;60540;51.178;6.738;2022-10-04T05:46:52;7.40;;;4.13;;
72517;SDS011;60540;51.178;6.738;2022-10-04T05:49:21;7.85;;;4.40;;
72517;SDS011;60540;51.178;6.738;2022-10-04T05:51:58;10.60;;;4.65;;
72517;SDS011;60540;51.178;6.738;2022-10-04T05:54:32;8.18;;;4.38;;
72517;SDS011;60540;51.178;6.738;2022-10-04T05:57:21;9.30;;;3.70;;
72517;SDS011;60540;51.178;6.738;2022-10-04T06:05:12;7.60;;;4.35;;
72517;SDS011;60540;51.178;6.738;2022-10-04T06:07:44;8.90;;;4.30;;
72517;SDS011;60540;51.178;6.738;2022-10-04T06:12:47;8.45;;;3.95;;
72517;SDS011;60540;51.178;6.738;2022-10-04T06:24:24;7.75;;;3.85;;
72517;SDS011;60540;51.178;6.738;2022-10-04T06:26:42;6.88;;;4.10;;
72517;SDS011;60540;51.178;6.738;2022-10-04T06:29:10;6.82;;;4.03;;
72517;SDS011;60540;51.178;6.738;2022-10-04T06:34:44;8.48;;;3.58;;
72517;SDS011;60540;51.178;6.738;2022-10-04T06:45:39;10.60;;;4.88;;
72517;SDS011;60540;51.178;6.738;2022-10-04T06:51:03;7.03;;;4.57;;
72517;SDS011;60540;51.178;6.738;2022-10-04T06:56:41;6.97;;;3.92;;
72517;SDS011;60540;51.178;6.738;2022-10-04T07:01:54;6.95;;;4.05;;
72517;SDS011;60540;51.178;6.738;2022-10-04T07:04:34;7.95;;;4.15;;
72517;SDS011;60540;51.178;6.738;2022-10-04T07:07:11;8.15;;;4.13;;
72517;SDS011;60540;51.178;6.738;2022-10-04T07:13:21;8.50;;;4.70;;
72517;SDS011;60540;51.178;6.738;2022-10-04T07:18:55;8.20;;;4.13;;
72517;SDS011;60540;51.178;6.738;2022-10-04T07:21:23;9.93;;;4.63;;
72517;SDS011;60540;51.178;6.738;2022-10-04T07:23:55;8.80;;;4.72;;
72517;SDS011;60540;51.178;6.738;2022-10-04T07:26:27;11.95;;;5.78;;
72517;SDS011;60540;51.178;6.738;2022-10-04T07:28:59;10.95;;;4.20;;
72517;SDS011;60540;51.178;6.738;2022-10-04T07:34:27;9.95;;;4.88;;
72517;SDS011;60540;51.178;6.738;2022-10-04T07:36:55;11.15;;;5.30;;
72517;SDS011;60540;51.178;6.738;2022-10-04T07:39:28;10.75;;;5.22;;
72517;SDS011;60540;51.178;6.738;2022-10-04T07:42:06;9.57;;;5.00;;
72517;SDS011;60540;51.178;6.738;2022-10-04T07:44:42;8.73;;;4.88;;
72517;SDS011;60540;51.178;6.738;2022-10-04T07:47:16;9.57;;;5.10;;
72517;SDS011;60540;51.178;6.738;2022-10-04T07:49:44;9.98;;;5.20;;
72517;SDS011;60540;51.178;6.738;2022-10-04T07:52:33;11.05;;;5.00;;
72517;SDS011;60540;51.178;6.738;2022-10-04T08:00:59;8.05;;;4.75;;
72517;SDS011;60540;51.178;6.738;2022-10-04T08:17:00;10.10;;;5.30;;
72517;SDS011;60540;51.178;6.738;2022-10-04T08:19:41;10.00;;;4.72;;
72517;SDS011;60540;51.178;6.738;2022-10-04T08:25:15;10.90;;;5.78;;
72517;SDS011;60540;51.178;6.738;2022-10-04T08:27:52;12.02;;;5.93;;
72517;SDS011;60540;51.178;6.738;2022-10-04T08:38:41;13.77;;;6.60;;
72517;SDS011;60540;51.178;6.738;2022-10-04T08:41:27;13.75;;;6.65;;
72517;SDS011;60540;51.178;6.738;2022-10-04T08:44:15;10.15;;;5.28;;
72517;SDS011;60540;51.178;6.738;2022-10-04T08:58:57;13.50;;;7.00;;
72517;SDS011;60540;51.178;6.738;2022-10-04T09:07:25;10.07;;;5.63;;
72517;SDS011;60540;51.178;6.738;2022-10-04T09:10:13;11.45;;;5.45;;
72517;SDS011;60540;51.178;6.738;2022-10-04T09:12:43;11.65;;;5.13;;
72517;SDS011;60540;51.178;6.738;2022-10-04T09:21:10;13.60;;;5.25;;
72517;SDS011;60540;51.178;6.738;2022-10-04T09:26:22;10.63;;;5.65;;
72517;SDS011;60540;51.178;6.738;2022-10-04T09:36:32;10.25;;;5.40;;
72517;SDS011;60540;51.178;6.738;2022-10-04T09:44:42;10.15;;;5.65;;
72517;SDS011;60540;51.178;6.738;2022-10-04T09:50:21;9.98;;;4.88;;
72517;SDS011;60540;51.178;6.738;2022-10-04T10:01:25;8.63;;;4.40;;
72517;SDS011;60540;51.178;6.738;2022-10-04T10:09:20;11.55;;;5.32;;
72517;SDS011;60540;51.178;6.738;2022-10-04T10:12:18;9.25;;;5.13;;
72517;SDS011;60540;51.178;6.738;2022-10-04T10:15:17;12.00;;;5.03;;
72517;SDS011;60540;51.178;6.738;2022-10-04T10:40:22;9.93;;;4.30;;
72517;SDS011;60540;51.178;6.738;2022-10-04T10:45:32;7.45;;;3.97;;
72517;SDS011;60540;51.178;6.738;2022-10-04T10:48:11;7.60;;;3.58;;
72517;SDS011;60540;51.178;6.738;2022-10-04T10:51:00;8.55;;;3.60;;
72517;SDS011;60540;51.178;6.738;2022-10-04T10:56:34;7.70;;;4.32;;
72517;SDS011;60540;51.178;6.738;2022-10-04T11:16:23;7.40;;;3.90;;
72517;SDS011;60540;51.178;6.738;2022-10-04T11:19:28;10.13;;;4.40;;
72517;SDS011;60540;51.178;6.738;2022-10-04T11:52:02;6.30;;;2.80;;
72517;SDS011;60540;51.178;6.738;2022-10-04T11:54:43;8.73;;;3.38;;
72517;SDS011;60540;51.178;6.738;2022-10-04T11:57:19;10.68;;;2.95;;
72517;SDS011;60540;51.178;6.738;2022-10-04T12:03:00;7.97;;;3.53;;
72517;SDS011;60540;51.178;6.738;2022-10-04T12:05:51;6.13;;;2.70;;
72517;SDS011;60540;51.178;6.738;2022-10-04T12:08:56;6.32;;;2.85;;
72517;SDS011;60540;51.178;6.738;2022-10-04T12:15:01;6.78;;;2.85;;
72517;SDS011;60540;51.178;6.738;2022-10-04T12:31:27;5.32;;;3.15;;
72517;SDS011;60540;51.178;6.738;2022-10-04T12:37:01;8.90;;;3.25;;
72517;SDS011;60540;51.178;6.738;2022-10-04T12:39:46;5.65;;;2.50;;
72517;SDS011;60540;51.178;6.738;2022-10-04T12:45:11;9.13;;;3.17;;
72517;SDS011;60540;51.178;6.738;2022-10-04T12:47:52;8.70;;;3.35;;
72517;SDS011;60540;51.178;6.738;2022-10-04T13:00:57;5.68;;;3.10;;
72517;SDS011;60540;51.178;6.738;2022-10-04T13:03:32;10.20;;;3.03;;
72517;SDS011;60540;51.178;6.738;2022-10-04T13:09:09;6.82;;;3.00;;
72517;SDS011;60540;51.178;6.738;2022-10-04T13:11:57;5.55;;;2.70;;
72517;SDS011;60540;51.178;6.738;2022-10-04T13:22:31;9.38;;;2.97;;
72517;SDS011;60540;51.178;6.738;2022-10-04T13:33:42;5.03;;;2.42;;
72517;SDS011;60540;51.178;6.738;2022-10-04T13:36:16;5.00;;;2.35;;
72517;SDS011;60540;51.178;6.738;2022-10-04T13:41:36;5.38;;;2.65;;
72517;SDS011;60540;51.178;6.738;2022-10-04T13:52:29;8.63;;;3.00;;
72517;SDS011;60540;51.178;6.738;2022-10-04T13:55:37;5.22;;;2.47;;
72517;SDS011;60540;51.178;6.738;2022-10-04T14:24:26;5.32;;;2.63;;
72517;SDS011;60540;51.178;6.738;2022-10-04T14:35:33;7.32;;;2.35;;
72517;SDS011;60540;51.178;6.738;2022-10-04T14:38:35;5.70;;;2.35;;
72517;SDS011;60540;51.178;6.738;2022-10-04T14:44:03;4.05;;;2.22;;
72517;SDS011;60540;51.178;6.738;2022-10-04T14:52:05;4.50;;;2.40;;
72517;SDS011;60540;51.178;6.738;2022-10-04T14:57:16;4.90;;;2.63;;
72517;SDS011;60540;51.178;6.738;2022-10-04T14:59:56;6.15;;;2.50;;
72517;SDS011;60540;51.178;6.738;2022-10-04T15:07:37;5.78;;;2.60;;
72517;SDS011;60540;51.178;6.738;2022-10-04T15:18:27;6.28;;;2.72;;
72517;SDS011;60540;51.178;6.738;2022-10-04T15:23:56;3.95;;;2.30;;
72517;SDS011;60540;51.178;6.738;2022-10-04T15:34:00;3.88;;;2.08;;
72517;SDS011;60540;51.178;6.738;2022-10-04T15:47:58;6.35;;;2.55;;
72517;SDS011;60540;51.178;6.738;2022-10-04T15:50:52;4.82;;;2.20;;
72517;SDS011;60540;51.178;6.738;2022-10-04T15:53:24;7.53;;;2.58;;
72517;SDS011;60540;51.178;6.738;2022-10-04T15:56:04;5.63;;;2.28;;
72517;SDS011;60540;51.178;6.738;2022-10-04T16:01:48;6.43;;;2.25;;
72517;SDS011;60540;51.178;6.738;2022-10-04T16:04:43;8.77;;;2.33;;
72517;SDS011;60540;51.178;6.738;2022-10-04T16:15:42;5.38;;;2.47;;
72517;SDS011;60540;51.178;6.738;2022-10-04T16:21:05;6.22;;;2.70;;
72517;SDS011;60540;51.178;6.738;2022-10-04T16:23:41;8.70;;;2.72;;
72517;SDS011;60540;51.178;6.738;2022-10-04T16:26:09;5.95;;;2.30;;
72517;SDS011;60540;51.178;6.738;2022-10-04T16:31:40;6.97;;;2.45;;
72517;SDS011;60540;51.178;6.738;2022-10-04T16:42:30;9.73;;;3.60;;
72517;SDS011;60540;51.178;6.738;2022-10-04T16:47:34;8.82;;;4.30;;
72517;SDS011;60540;51.178;6.738;2022-10-04T16:50:04;10.50;;;4.35;;
72517;SDS011;60540;51.178;6.738;2022-10-04T16:52:46;7.63;;;3.03;;
72517;SDS011;60540;51.178;6.738;2022-10-04T16:55:18;10.80;;;4.25;;
72517;SDS011;60540;51.178;6.738;2022-10-04T17:06:39;6.95;;;2.80;;
72517;SDS011;60540;51.178;6.738;2022-10-04T17:12:35;6.00;;;3.03;;
72517;SDS011;60540;51.178;6.738;2022-10-04T17:15:20;6.20;;;2.85;;
72517;SDS011;60540;51.178;6.738;2022-10-04T17:26:25;14.95;;;5.53;;
72517;SDS011;60540;51.178;6.738;2022-10-04T17:42:57;16.15;;;7.32;;
72517;SDS011;60540;51.178;6.738;2022-10-04T17:48:07;23.15;;;10.98;;
72517;SDS011;60540;51.178;6.738;2022-10-04T17:51:01;21.35;;;9.15;;
72517;SDS011;60540;51.178;6.738;2022-10-04T17:53:49;20.42;;;8.02;;
72517;SDS011;60540;51.178;6.738;2022-10-04T17:59:12;12.13;;;5.88;;
72517;SDS011;60540;51.178;6.738;2022-10-04T18:01:45;19.50;;;9.15;;
72517;SDS011;60540;51.178;6.738;2022-10-04T18:04:24;19.25;;;7.97;;
72517;SDS011;60540;51.178;6.738;2022-10-04T18:07:08;22.60;;;10.73;;
72517;SDS011;60540;51.178;6.738;2022-10-04T18:09:46;23.33;;;8.25;;
72517;SDS011;60540;51.178;6.738;2022-10-04T18:12:27;21.95;;;8.43;;
72517;SDS011;60540;51.178;6.738;2022-10-04T18:14:58;18.30;;;9.82;;
72517;SDS011;60540;51.178;6.738;2022-10-04T18:17:37;28.65;;;13.80;;
72517;SDS011;60540;51.178;6.738;2022-10-04T18:22:56;12.25;;;5.95;;
72517;SDS011;60540;51.178;6.738;2022-10-04T18:25:24;11.88;;;5.82;;
72517;SDS011;60540;51.178;6.738;2022-10-04T18:27:58;7.75;;;4.68;;
72517;SDS011;60540;51.178;6.738;2022-10-04T18:33:16;6.00;;;3.40;;
72517;SDS011;60540;51.178;6.738;2022-10-04T18:35:51;9.25;;;4.10;;
72517;SDS011;60540;51.178;6.738;2022-10-04T18:38:37;10.85;;;4.50;;
72517;SDS011;60540;51.178;6.738;2022-10-04T18:41:16;12.82;;;6.22;;
72517;SDS011;60540;51.178;6.738;2022-10-04T18:46:22;8.43;;;3.85;;
72517;SDS011;60540;51.178;6.738;2022-10-04T18:48:59;7.30;;;3.97;;
72517;SDS011;60540;51.178;6.738;2022-10-04T18:51:40;11.50;;;4.13;;
72517;SDS011;60540;51.178;6.738;2022-10-04T19:02:35;8.00;;;3.47;;
72517;SDS011;60540;51.178;6.738;2022-10-04T19:05:14;9.20;;;3.67;;
72517;SDS011;60540;51.178;6.738;2022-10-04T19:07:52;5.90;;;2.80;;
72517;SDS011;60540;51.178;6.738;2022-10-04T19:27:16;6.80;;;3.60;;
72517;SDS011;60540;51.178;6.738;2022-10-04T19:29:50;7.10;;;3.65;;
72517;SDS011;60540;51.178;6.738;2022-10-04T19:32:37;6.10;;;3.40;;
72517;SDS011;60540;51.178;6.738;2022-10-04T19:35:31;6.55;;;3.70;;
72517;SDS011;60540;51.178;6.738;2022-10-04T19:43:38;7.90;;;4.13;;
72517;SDS011;60540;51.178;6.738;2022-10-04T19:49:13;8.10;;;4.72;;
72517;SDS011;60540;51.178;6.738;2022-10-04T19:51:51;7.07;;;3.92;;
72517;SDS011;60540;51.178;6.738;2022-10-04T19:54:23;8.90;;;4.47;;
72517;SDS011;60540;51.178;6.738;2022-10-04T19:59:32;8.52;;;4.25;;
72517;SDS011;60540;51.178;6.738;2022-10-04T20:02:08;10.45;;;4.13;;
72517;SDS011;60540;51.178;6.738;2022-10-04T20:04:34;11.00;;;4.55;;
72517;SDS011;60540;51.178;6.738;2022-10-04T20:09:50;8.23;;;4.25;;
72517;SDS011;60540;51.178;6.738;2022-10-04T20:12:42;9.63;;;4.78;;
72517;SDS011;60540;51.178;6.738;2022-10-04T20:15:41;8.50;;;4.20;;
72517;SDS011;60540;51.178;6.738;2022-10-04T20:21:22;9.95;;;4.50;;
72517;SDS011;60540;51.178;6.738;2022-10-04T20:23:49;9.02;;;5.45;;
72517;SDS011;60540;51.178;6.738;2022-10-04T20:26:36;7.40;;;4.15;;
72517;SDS011;60540;51.178;6.738;2022-10-04T20:32:01;10.30;;;4.35;;
72517;SDS011;60540;51.178;6.738;2022-10-04T20:37:03;9.63;;;4.70;;
72517;SDS011;60540;51.178;6.738;2022-10-04T20:42:07;9.93;;;5.10;;
72517;SDS011;60540;51.178;6.738;2022-10-04T20:44:48;8.50;;;4.60;;
72517;SDS011;60540;51.178;6.738;2022-10-04T20:52:42;8.73;;;4.63;;
72517;SDS011;60540;51.178;6.738;2022-10-04T20:55:15;10.68;;;5.38;;
72517;SDS011;60540;51.178;6.738;2022-10-04T20:57:44;10.55;;;5.25;;
72517;SDS011;60540;51.178;6.738;2022-10-04T21:00:16;8.80;;;4.80;;
72517;SDS011;60540;51.178;6.738;2022-10-04T21:02:46;9.60;;;5.00;;
72517;SDS011;60540;51.178;6.738;2022-10-04T21:05:22;9.88;;;4.85;;
72517;SDS011;60540;51.178;6.738;2022-10-04T21:08:10;8.65;;;4.90;;
72517;SDS011;60540;51.178;6.738;2022-10-04T21:11:00;8.95;;;4.63;;
72517;SDS011;60540;51.178;6.738;2022-10-04T21:14:03;8.00;;;4.60;;
72517;SDS011;60540;51.178;6.738;2022-10-04T21:22:03;10.07;;;4.47;;
72517;SDS011;60540;51.178;6.738;2022-10-04T21:32:32;7.70;;;4.07;;
72517;SDS011;60540;51.178;6.738;2022-10-04T21:34:59;11.20;;;4.38;;
72517;SDS011;60540;51.178;6.738;2022-10-04T21:37:25;9.38;;;5.25;;
72517;SDS011;60540;51.178;6.738;2022-10-04T21:39:51;8.68;;;4.45;;
72517;SDS011;60540;51.178;6.738;2022-10-04T21:42:16;11.68;;;5.13;;
72517;SDS011;60540;51.178;6.738;2022-10-04T21:44:42;8.68;;;4.30;;
72517;SDS011;60540;51.178;6.738;2022-10-04T21:47:08;8.45;;;3.83;;
72517;SDS011;60540;51.178;6.738;2022-10-04T21:49:34;9.48;;;4.45;;
72517;SDS011;60540;51.178;6.738;2022-10-04T21:52:00;8.18;;;4.07;;
72517;SDS011;60540;51.178;6.738;2022-10-04T21:54:25;10.55;;;4.38;;
72517;SDS011;60540;51.178;6.738;2022-10-04T21:56:51;8.55;;;3.85;;
72517;SDS011;60540;51.178;6.738;2022-10-04T22:01:44;8.85;;;3.97;;
72517;SDS011;60540;51.178;6.738;2022-10-04T22:04:09;7.72;;;3.92;;
72517;SDS011;60540;51.178;6.738;2022-10-04T22:06:35;7.00;;;3.97;;
72517;SDS011;60540;51.178;6.738;2022-10-04T22:09:00;7.93;;;3.40;;
72517;SDS011;60540;51.178;6.738;2022-10-04T22:11:26;7.38;;;3.63;;
72517;SDS011;60540;51.178;6.738;2022-10-04T22:13:51;8.65;;;3.72;;
72517;SDS011;60540;51.178;6.738;2022-10-04T22:16:17;9.60;;;3.92;;
72517;SDS011;60540;51.178;6.738;2022-10-04T22:18:42;7.53;;;4.03;;
72517;SDS011;60540;51.178;6.738;2022-10-04T22:21:08;7.78;;;3.83;;
72517;SDS011;60540;51.178;6.738;2022-10-04T22:23:38;7.35;;;3.20;;
72517;SDS011;60540;51.178;6.738;2022-10-04T22:26:24;8.65;;;4.18;;
72517;SDS011;60540;51.178;6.738;2022-10-04T22:31:35;7.20;;;3.75;;
72517;SDS011;60540;51.178;6.738;2022-10-04T22:34:00;7.63;;;4.15;;
72517;SDS011;60540;51.178;6.738;2022-10-04T22:36:31;8.80;;;4.20;;
72517;SDS011;60540;51.178;6.738;2022-10-04T22:39:09;11.52;;;4.30;;
72517;SDS011;60540;51.178;6.738;2022-10-04T22:41:38;7.10;;;3.88;;
72517;SDS011;60540;51.178;6.738;2022-10-04T22:46:41;7.53;;;3.53;;
72517;SDS011;60540;51.178;6.738;2022-10-04T22:49:11;9.50;;;4.15;;
72517;SDS011;60540;51.178;6.738;2022-10-04T22:51:39;7.80;;;3.70;;
72517;SDS011;60540;51.178;6.738;2022-10-04T22:59:16;8.43;;;3.55;;
72517;SDS011;60540;51.178;6.738;2022-10-04T23:01:46;6.55;;;3.85;;
72517;SDS011;60540;51.178;6.738;2022-10-04T23:04:20;9.85;;;4.63;;
72517;SDS011;60540;51.178;6.738;2022-10-04T23:06:47;8.50;;;3.58;;
72517;SDS011;60540;51.178;6.738;2022-10-04T23:09:13;8.23;;;3.42;;
72517;SDS011;60540;51.178;6.738;2022-10-04T23:11:38;7.60;;;4.00;;
72517;SDS011;60540;51.178;6.738;2022-10-04T23:14:04;5.93;;;3.65;;
72517;SDS011;60540;51.178;6.738;2022-10-04T23:16:29;6.07;;;3.60;;
72517;SDS011;60540;51.178;6.738;2022-10-04T23:19:17;8.30;;;4.00;;
72517;SDS011;60540;51.178;6.738;2022-10-04T23:21:44;6.32;;;3.28;;
72517;SDS011;60540;51.178;6.738;2022-10-04T23:26:37;7.03;;;3.55;;
72517;SDS011;60540;51.178;6.738;2022-10-04T23:29:08;7.88;;;3.45;;
72517;SDS011;60540;51.178;6.738;2022-10-04T23:31:40;7.45;;;3.90;;
72517;SDS011;60540;51.178;6.738;2022-10-04T23:34:12;6.32;;;3.30;;
72517;SDS011;60540;51.178;6.738;2022-10-04T23:36:46;7.90;;;3.67;;
72517;SDS011;60540;51.178;6.738;2022-10-04T23:39:14;9.52;;;3.90;;
72517;SDS011;60540;51.178;6.738;2022-10-04T23:41:48;6.63;;;3.25;;
72517;SDS011;60540;51.178;6.738;2022-10-04T23:44:14;6.75;;;3.25;;
72517;SDS011;60540;51.178;6.738;2022-10-04T23:46:41;6.18;;;3.28;;
72517;SDS011;60540;51.178;6.738;2022-10-04T23:49:14;8.40;;;3.63;;
72517;SDS011;60540;51.178;6.738;2022-10-04T23:51:40;6.40;;;3.30;;
72517;SDS011;60540;51.178;6.738;2022-10-04T23:54:10;6.82;;;3.60;;
72517;SDS011;60540;51.178;6.738;2022-10-04T23:56:37;8.63;;;3.28;;
72517;SDS011;60540;51.178;6.738;2022-10-04T23:59:03;7.78;;;3.40;;
